• Join FlightAware (Why Join?)
  • Login
  • US Flag 
08:42PM EDT


 

Airport Tracker/Info


-or-


 

Live Flight TrackerFlight Track Log ✈ N53398 ✈ 25-Jul-2013 ✈ KCPS - KSTL

Flight Track Log - Related Links

Times and Time Zones

All times are in EDT time to prevent confusion due to time zone crossing. See the N53398 flight status page for this flight to view local times or setup timezone preferences in your user account.

Time Position Orientation Groundspeed Altitude Reporting Facility
EDT Latitude Longitude Course Direction KTS MPH feet Rate Location/Type
11:32AM 38.5667 -90.1333 354° North 68 78 1,100  Level Gateway (St. Louis) TRACON
11:34AM 38.6072 -90.1392 354° North 73 84 1,900 360 Climbing Kansas City Center
11:35AM 38.6186 -90.1639 301° West 82 94 2,300 300 Climbing Kansas City Center
11:36AM 38.6203 -90.1922 274° West 82 94 2,600 120 Climbing Kansas City Center
11:37AM 38.6208 -90.2222 271° West 82 94 2,600 -60 Level Kansas City Center
11:38AM 38.6222 -90.2564 273° West 88 101 2,500  Descending Kansas City Center
11:39AM 38.6053 -90.2575 183° South 97 112 2,600  Climbing Kansas City Center
11:40AM 38.6181 -90.2300 59° Northeast 82 94 2,500 -60 Descending Kansas City Center
11:41AM 38.6381 -90.2344 350° North 85 98 2,500  Level Kansas City Center
11:42AM 38.6564 -90.2528 322° Northwest 84 97 2,500 -120 Level Kansas City Center
11:43AM 38.6733 -90.2731 317° Northwest 83 96 2,300 -360 Descending Kansas City Center
11:44AM 38.6922 -90.2947 318° Northwest 87 100 1,800 -420 Descending Kansas City Center
11:45AM 38.7153 -90.3250 314° West 94 108 1,500 -300 Descending Kansas City Center
11:46AM 38.7311 -90.3503 309° West 95 109 1,300 -360 Descending Kansas City Center
11:47AM 38.7419 -90.3722 302° West 86 99 800 -120 Descending Kansas City Center
11:49AM 38.7487 -90.3700 153° Southeast  Level Estimated
11:49AM 38.7625 -90.4161 153° Southeast 65 75 1,000  Level Kansas City Center
11:51AM 38.7503 -90.4197 193° South 80 92 1,500 240 Climbing Kansas City Center
11:52AM 38.7369 -90.3942 124° Southeast 82 94 1,500 -300 Level Kansas City Center
11:53AM 38.7378 -90.3714 87° East 89 102 1,000 -480 Descending Kansas City Center
11:54AM 38.7528 -90.3897 316° Northwest 77 89 600 -420 Descending Kansas City Center